Terminal Aerodrome Forecast
Issued by NWS

Home | Current Version | Previous Version | Text Only | Print | Product List | Glossary On
Versions: 1 2 3 4 5 6 7 8 9 10 11 12 13 14 15 16 17 18 19 20
000
FTUS43 KPAH 221727
TAFCGI
TAF
KCGI 221727Z 2218/2318 VRB04KT P6SM SCT050 BKN250
     FM230000 VRB03KT P6SM SCT250
     FM230600 00000KT 3SM BR SKC
      TEMPO 2308/2312 1/4SM FG VV001
     FM231400 20004KT P6SM SCT025=

USA.gov is the U.S. government's official web portal to all federal, state and local government web resources and services.